Time;durP1;ratioP1;P1;durP2;ratioP2;P2;SDS_P1;SDS_P2;PMS_P1;PMS_P2;Temp;Humidity;BMP_temperature;BMP_pressure;BME280_temperature;BME280_humidity;BME280_pressure;Samples;Min_cycle;Max_cycle;Signal;HPM_P1;HPM_P2
2023/03/04 00:02:46;;;;;;;24.50;18.23;;;5.90;99.90;;;;;;6268726;28;20470;-59
2023/03/04 00:05:49;;;;;;;23.73;20.13;;;5.80;99.90;;;;;;6278878;28;21068;-60
2023/03/04 00:08:52;;;;;;;24.77;19.60;;;5.70;99.90;;;;;;6278847;28;20480;-59
2023/03/04 00:11:57;;;;;;;24.53;19.80;;;5.70;99.90;;;;;;6278913;28;20486;-60
2023/03/04 00:15:00;;;;;;;23.10;20.30;;;5.70;99.90;;;;;;6278953;28;20461;-60
2023/03/04 00:18:03;;;;;;;23.50;19.27;;;5.60;99.90;;;;;;6269258;28;20477;-60
2023/03/04 00:21:07;;;;;;;25.40;18.77;;;5.60;99.90;;;;;;6278583;28;20477;-59
2023/03/04 00:24:10;;;;;;;25.87;19.10;;;5.60;99.90;;;;;;6278304;28;20473;-59
2023/03/04 00:27:14;;;;;;;21.30;17.87;;;5.50;99.90;;;;;;6278461;28;20474;-60
2023/03/04 00:30:18;;;;;;;24.47;19.00;;;5.50;99.90;;;;;;6278616;28;20481;-59
2023/03/04 00:33:21;;;;;;;26.10;19.10;;;5.40;99.90;;;;;;6278166;28;20489;-59
2023/03/04 00:36:25;;;;;;;21.27;18.33;;;5.40;99.90;;;;;;6278111;28;20477;-59
2023/03/04 00:39:28;;;;;;;21.73;18.60;;;5.40;99.90;;;;;;6278201;28;20478;-59
2023/03/04 00:42:32;;;;;;;23.73;18.63;;;5.40;99.90;;;;;;6277870;28;20806;-59
2023/03/04 00:45:36;;;;;;;26.23;19.47;;;5.30;99.90;;;;;;6275354;28;20474;-60
2023/03/04 00:48:39;;;;;;;23.70;19.33;;;5.20;99.90;;;;;;6253328;28;20479;-60
2023/03/04 00:51:42;;;;;;;24.03;18.83;;;5.10;99.90;;;;;;6253065;28;20989;-59
2023/03/04 00:54:45;;;;;;;23.20;19.63;;;5.10;99.90;;;;;;6253438;28;20486;-60
2023/03/04 00:57:50;;;;;;;22.60;18.47;;;5.00;99.90;;;;;;6252777;28;20494;-60
2023/03/04 01:00:53;;;;;;;20.33;18.00;;;5.00;99.90;;;;;;6252909;28;20475;-59
2023/03/04 01:03:56;;;;;;;23.47;18.93;;;4.90;99.90;;;;;;6277066;28;20477;-59
2023/03/04 01:06:59;;;;;;;29.13;20.80;;;4.90;99.90;;;;;;6277862;28;20482;-60
2023/03/04 01:10:03;;;;;;;26.00;19.90;;;4.90;99.90;;;;;;6277645;28;20473;-59
2023/03/04 01:13:07;;;;;;;28.17;20.40;;;4.90;99.90;;;;;;6278269;28;20474;-59
2023/03/04 01:16:11;;;;;;;25.20;18.40;;;4.90;99.90;;;;;;6277225;28;20473;-59
2023/03/04 01:19:15;;;;;;;25.60;20.07;;;4.90;99.90;;;;;;6272830;28;20541;-59
2023/03/04 01:22:18;;;;;;;24.33;19.43;;;4.90;99.90;;;;;;6277099;28;20812;-59
2023/03/04 01:25:21;;;;;;;24.10;19.60;;;4.80;99.90;;;;;;6277455;28;20532;-60
2023/03/04 01:28:26;;;;;;;25.43;20.00;;;4.80;99.90;;;;;;6276851;28;20477;-60
2023/03/04 01:31:29;;;;;;;25.33;19.73;;;4.80;99.90;;;;;;6277217;28;20807;-60
2023/03/04 01:34:33;;;;;;;19.90;17.90;;;4.70;99.90;;;;;;6276939;28;20476;-59
2023/03/04 01:37:36;;;;;;;25.80;19.17;;;4.70;99.90;;;;;;6276206;28;20972;-59
2023/03/04 01:40:39;;;;;;;23.97;19.50;;;4.70;99.90;;;;;;6278769;28;20472;-59
2023/03/04 01:43:45;;;;;;;25.83;21.50;;;4.60;99.90;;;;;;6280121;28;20465;-59
2023/03/04 01:46:52;;;;;;;26.53;20.77;;;4.60;99.90;;;;;;6265301;28;20470;-59
2023/03/04 01:49:57;;;;;;;25.47;19.70;;;4.60;99.90;;;;;;6251720;28;20494;-60
2023/03/04 01:53:00;;;;;;;22.53;17.97;;;4.50;99.90;;;;;;6251644;28;20479;-59
2023/03/04 01:56:14;;;;;;;22.67;18.30;;;4.50;99.90;;;;;;6251334;28;20796;-60
2023/03/04 01:59:21;;;;;;;26.63;19.03;;;4.50;99.90;;;;;;6251494;28;20483;-59
2023/03/04 02:02:24;;;;;;;20.23;18.10;;;4.50;99.90;;;;;;6262967;28;20471;-59
2023/03/04 02:05:29;;;;;;;21.07;17.97;;;4.40;99.90;;;;;;6276500;28;20481;-59
2023/03/04 02:08:34;;;;;;;24.60;19.93;;;4.40;99.90;;;;;;6277321;28;20817;-59
2023/03/04 02:11:38;;;;;;;23.30;19.23;;;4.40;99.90;;;;;;6276744;28;20969;-60
2023/03/04 02:14:43;;;;;;;27.50;19.00;;;4.40;99.90;;;;;;6276146;28;20492;-59
2023/03/04 02:17:46;;;;;;;26.10;20.33;;;4.40;99.90;;;;;;6276812;28;20482;-59
2023/03/04 02:21:00;;;;;;;23.60;19.80;;;4.40;99.90;;;;;;6275482;28;20470;-59
2023/03/04 02:24:14;;;;;;;27.07;19.30;;;4.30;99.90;;;;;;6275343;28;20522;-59
2023/03/04 02:27:19;;;;;;;25.57;18.67;;;4.30;99.90;;;;;;6275681;28;20581;-60
2023/03/04 02:30:25;;;;;;;22.83;18.30;;;4.20;99.90;;;;;;6275568;28;20563;-59
2023/03/04 02:33:28;;;;;;;25.33;20.63;;;4.20;99.90;;;;;;6275225;28;21142;-59
2023/03/04 02:36:32;;;;;;;23.60;17.93;;;4.10;99.90;;;;;;6275391;28;20976;-60
2023/03/04 02:39:39;;;;;;;21.47;19.10;;;4.10;99.90;;;;;;6275904;28;20493;-60
2023/03/04 02:42:46;;;;;;;21.83;17.70;;;4.10;99.90;;;;;;6275707;28;20796;-59
2023/03/04 02:45:50;;;;;;;20.57;16.80;;;4.00;99.90;;;;;;6270633;28;20467;-59
2023/03/04 02:48:54;;;;;;;26.23;20.37;;;4.00;99.90;;;;;;6250223;28;20490;-60
2023/03/04 02:52:04;;;;;;;21.63;18.20;;;4.00;99.90;;;;;;6249910;28;20479;-60
2023/03/04 02:55:08;;;;;;;21.30;17.43;;;4.00;99.90;;;;;;6250014;28;20490;-60
2023/03/04 02:58:14;;;;;;;22.10;18.30;;;4.00;99.90;;;;;;6250144;28;20473;-59
2023/03/04 03:01:17;;;;;;;26.87;21.77;;;3.90;99.90;;;;;;6251866;28;20814;-60
2023/03/04 03:04:21;;;;;;;19.80;17.60;;;3.90;99.90;;;;;;6274770;28;20446;-59
2023/03/04 03:07:24;;;;;;;22.13;18.70;;;3.90;99.90;;;;;;6274669;28;20533;-60
2023/03/04 03:10:27;;;;;;;22.67;18.27;;;3.90;99.90;;;;;;6274883;28;20466;-59
2023/03/04 03:13:32;;;;;;;26.27;20.47;;;3.90;99.90;;;;;;6274437;28;20976;-59
2023/03/04 03:16:35;;;;;;;27.60;21.20;;;3.80;99.90;;;;;;6274671;28;20801;-59
2023/03/04 03:19:38;;;;;;;22.73;17.70;;;3.80;99.90;;;;;;6274223;28;20476;-60
2023/03/04 03:22:42;;;;;;;20.03;17.90;;;3.90;99.90;;;;;;6274459;28;20572;-60
2023/03/04 03:25:45;;;;;;;28.53;19.10;;;3.80;99.90;;;;;;6274518;28;20473;-61
2023/03/04 03:28:50;;;;;;;27.10;18.57;;;3.80;99.90;;;;;;6262617;28;20483;-60
2023/03/04 03:31:53;;;;;;;23.20;18.33;;;3.80;99.90;;;;;;6237131;28;20472;-60
2023/03/04 03:34:57;;;;;;;23.73;19.33;;;3.70;99.90;;;;;;6241922;28;20497;-59
2023/03/04 03:38:00;;;;;;;21.03;17.07;;;3.70;99.90;;;;;;6238109;28;20476;-58
2023/03/04 03:41:03;;;;;;;22.57;19.10;;;3.70;99.90;;;;;;6238499;28;20479;-59
2023/03/04 03:44:08;;;;;;;20.70;18.00;;;3.70;99.90;;;;;;6236230;28;20464;-59
2023/03/04 03:47:11;;;;;;;19.50;17.40;;;3.60;99.90;;;;;;6238068;28;20526;-60
2023/03/04 03:50:14;;;;;;;19.60;17.50;;;3.60;99.90;;;;;;6247068;28;20483;-60
2023/03/04 03:53:18;;;;;;;21.17;18.00;;;3.50;99.90;;;;;;6234552;28;20963;-60
2023/03/04 03:56:21;;;;;;;21.30;16.80;;;3.60;99.90;;;;;;6238318;28;20467;-60
2023/03/04 03:59:25;;;;;;;22.83;16.20;;;3.50;99.90;;;;;;6236704;28;20485;-60
2023/03/04 04:02:29;;;;;;;21.83;17.43;;;3.50;99.90;;;;;;6240315;28;20482;-60
2023/03/04 04:05:32;;;;;;;22.23;17.13;;;3.50;99.90;;;;;;6236880;28;20479;-60
2023/03/04 04:08:35;;;;;;;19.63;17.07;;;3.50;99.90;;;;;;6243584;28;20494;-60
2023/03/04 04:11:39;;;;;;;21.67;17.23;;;3.50;99.90;;;;;;6249098;28;20771;-61
2023/03/04 04:14:44;;;;;;;26.93;17.53;;;3.50;99.90;;;;;;6249077;28;20490;-60
2023/03/04 04:17:47;;;;;;;20.00;17.60;;;3.50;99.90;;;;;;6249198;28;20482;-60
2023/03/04 04:20:52;;;;;;;21.27;17.90;;;3.50;99.90;;;;;;6249976;28;20481;-61
2023/03/04 04:23:55;;;;;;;18.77;16.77;;;3.40;99.90;;;;;;6253897;28;20787;-60
2023/03/04 04:26:58;;;;;;;21.73;18.93;;;3.50;99.90;;;;;;6250137;28;20477;-60
2023/03/04 04:30:03;;;;;;;22.03;16.43;;;3.50;99.90;;;;;;6253643;28;20548;-60
2023/03/04 04:33:06;;;;;;;23.60;16.70;;;3.50;99.90;;;;;;6254123;28;20470;-60
2023/03/04 04:36:14;;;;;;;20.10;16.33;;;3.50;99.90;;;;;;6253574;28;20977;-60
2023/03/04 04:39:18;;;;;;;22.57;16.70;;;3.40;99.90;;;;;;6252799;28;20483;-60
2023/03/04 04:42:22;;;;;;;21.83;17.47;;;3.30;99.90;;;;;;6253095;28;20481;-60
2023/03/04 04:45:26;;;;;;;20.93;16.53;;;3.20;99.90;;;;;;6252868;28;20467;-60
2023/03/04 04:48:29;;;;;;;28.47;18.10;;;3.20;99.90;;;;;;6253292;28;20471;-60
2023/03/04 04:51:34;;;;;;;25.83;18.80;;;3.10;99.90;;;;;;6253292;28;20475;-59
2023/03/04 04:54:37;;;;;;;19.10;17.10;;;3.00;99.90;;;;;;6253177;28;21003;-60
2023/03/04 04:57:40;;;;;;;21.13;18.10;;;2.90;99.90;;;;;;6252937;28;20479;-60
2023/03/04 05:00:44;;;;;;;27.17;19.93;;;2.90;99.90;;;;;;6253240;28;20490;-60
2023/03/04 05:03:49;;;;;;;21.67;16.63;;;2.90;99.90;;;;;;6275917;28;20482;-60
2023/03/04 05:06:52;;;;;;;21.37;18.20;;;2.90;99.90;;;;;;6277799;28;20509;-60
2023/03/04 05:09:55;;;;;;;20.70;18.23;;;2.90;99.90;;;;;;6277607;28;20501;-60
2023/03/04 05:12:58;;;;;;;21.40;18.37;;;2.90;99.90;;;;;;6277729;28;20540;-60
2023/03/04 05:16:03;;;;;;;25.03;18.77;;;2.90;99.90;;;;;;6277151;28;20524;-59
2023/03/04 05:19:07;;;;;;;22.07;17.17;;;2.90;99.90;;;;;;6277947;28;20532;-59
2023/03/04 05:22:10;;;;;;;20.40;17.60;;;2.90;99.90;;;;;;6278640;28;20453;-59
2023/03/04 05:25:13;;;;;;;21.87;18.40;;;2.90;99.90;;;;;;6279263;28;20438;-59
2023/03/04 05:28:17;;;;;;;32.73;22.27;;;3.00;99.90;;;;;;6268271;28;21164;-59
2023/03/04 05:31:22;;;;;;;26.03;19.57;;;3.00;99.90;;;;;;6277457;28;20443;-60
2023/03/04 05:34:25;;;;;;;22.17;19.83;;;2.90;99.90;;;;;;6276042;28;20778;-60
2023/03/04 05:37:28;;;;;;;28.07;18.80;;;2.90;99.90;;;;;;6277037;28;20797;-60
2023/03/04 05:40:32;;;;;;;25.97;19.60;;;2.90;99.90;;;;;;6277609;28;20465;-60
2023/03/04 05:43:37;;;;;;;19.10;17.03;;;2.90;99.90;;;;;;6276850;28;20484;-60
2023/03/04 05:46:41;;;;;;;21.90;16.53;;;2.90;99.90;;;;;;6265165;28;20552;-59
2023/03/04 05:49:44;;;;;;;21.40;18.03;;;2.90;99.90;;;;;;6251931;28;20485;-59
2023/03/04 05:52:48;;;;;;;23.10;16.53;;;2.90;99.90;;;;;;6251846;28;20942;-59
2023/03/04 05:55:51;;;;;;;22.93;17.37;;;2.80;99.90;;;;;;6251134;28;20902;-59
2023/03/04 05:58:57;;;;;;;28.73;17.27;;;2.80;99.90;;;;;;6251778;28;20471;-59
2023/03/04 06:02:01;;;;;;;21.07;17.00;;;2.80;99.90;;;;;;6259704;28;20470;-59
2023/03/04 06:05:06;;;;;;;19.77;17.20;;;2.80;99.90;;;;;;6276561;28;20470;-59
2023/03/04 06:08:10;;;;;;;23.73;17.37;;;2.80;99.90;;;;;;6276213;28;20942;-59
2023/03/04 06:11:13;;;;;;;21.00;16.80;;;2.80;99.90;;;;;;6271213;28;20528;-59
2023/03/04 06:14:16;;;;;;;17.97;14.70;;;2.80;99.90;;;;;;6237206;28;20931;-59
2023/03/04 06:17:21;;;;;;;17.57;15.80;;;2.80;99.90;;;;;;6237249;28;20481;-60
2023/03/04 06:20:24;;;;;;;23.40;17.33;;;2.80;99.90;;;;;;6247000;28;20505;-59
2023/03/04 06:23:28;;;;;;;19.27;16.60;;;2.80;99.90;;;;;;6239620;28;20468;-59
2023/03/04 06:26:31;;;;;;;23.00;17.77;;;2.80;99.90;;;;;;6237084;28;20974;-59
2023/03/04 06:29:35;;;;;;;20.03;16.30;;;2.70;99.90;;;;;;6238180;28;20558;-60
2023/03/04 06:32:43;;;;;;;18.00;16.17;;;2.70;99.90;;;;;;6225559;28;20799;-60
2023/03/04 06:35:46;;;;;;;18.10;16.30;;;2.80;99.90;;;;;;6239603;28;20483;-59
2023/03/04 06:38:49;;;;;;;19.33;16.50;;;2.80;99.90;;;;;;6237047;28;20476;-59
2023/03/04 06:41:53;;;;;;;25.30;17.00;;;2.90;99.90;;;;;;6238691;28;20840;-60
2023/03/04 06:44:56;;;;;;;20.03;17.07;;;3.00;99.90;;;;;;6246536;28;20470;-60
2023/03/04 06:48:00;;;;;;;20.97;17.97;;;3.20;99.90;;;;;;6250578;28;20482;-60
2023/03/04 06:51:07;;;;;;;23.27;16.83;;;3.30;99.90;;;;;;6250846;28;20541;-60
2023/03/04 06:54:10;;;;;;;27.57;18.53;;;3.40;99.90;;;;;;6250955;28;20478;-59
2023/03/04 06:57:14;;;;;;;22.80;16.90;;;3.50;99.90;;;;;;6250333;28;20818;-58
2023/03/04 07:00:18;;;;;;;22.73;16.60;;;3.70;99.90;;;;;;6250564;28;20467;-60
2023/03/04 07:03:23;;;;;;;19.60;15.53;;;3.80;99.90;;;;;;6269515;28;20470;-60
2023/03/04 07:06:28;;;;;;;20.57;18.07;;;3.90;99.90;;;;;;6276238;28;20466;-60
2023/03/04 07:09:31;;;;;;;23.87;16.27;;;4.00;99.90;;;;;;6275134;28;20620;-60
2023/03/04 07:12:34;;;;;;;21.90;16.17;;;4.20;99.90;;;;;;6274820;28;20481;-60
2023/03/04 07:15:38;;;;;;;21.70;15.03;;;4.30;99.90;;;;;;6274585;28;20497;-60
2023/03/04 07:18:42;;;;;;;19.77;16.50;;;4.40;99.90;;;;;;6282655;28;20577;-61
2023/03/04 07:21:45;;;;;;;18.43;15.13;;;4.50;99.90;;;;;;6281760;28;20969;-60
2023/03/04 07:24:48;;;;;;;17.40;14.77;;;4.60;99.90;;;;;;6274710;28;20527;-61
2023/03/04 07:27:52;;;;;;;19.00;15.37;;;4.70;99.90;;;;;;6274785;28;20478;-62
2023/03/04 07:30:55;;;;;;;16.67;14.90;;;4.70;99.90;;;;;;6274396;28;20489;-61
2023/03/04 07:34:02;;;;;;;17.07;14.17;;;4.80;99.90;;;;;;6274451;28;20921;-61
2023/03/04 07:37:05;;;;;;;20.30;17.60;;;4.90;99.90;;;;;;6274250;28;20817;-61
2023/03/04 07:40:10;;;;;;;18.73;15.87;;;4.70;99.90;;;;;;6274746;28;20486;-61
2023/03/04 07:43:13;;;;;;;25.83;16.20;;;4.70;99.90;;;;;;6274636;28;20752;-61
2023/03/04 07:46:17;;;;;;;20.17;16.10;;;4.70;99.90;;;;;;6274825;28;20437;-61
2023/03/04 07:49:22;;;;;;;18.03;14.97;;;4.90;99.90;;;;;;6275572;28;20462;-61
2023/03/04 07:52:25;;;;;;;19.57;17.57;;;5.00;99.90;;;;;;6258436;28;20477;-61
2023/03/04 07:55:30;;;;;;;20.40;18.30;;;5.20;99.90;;;;;;6249081;28;20489;-61
2023/03/04 07:58:33;;;;;;;19.20;16.77;;;5.30;99.90;;;;;;6254978;28;20481;-61
2023/03/04 08:01:38;;;;;;;21.53;16.83;;;5.50;99.90;;;;;;6259304;28;20470;-61
2023/03/04 08:04:42;;;;;;;20.70;17.37;;;5.80;99.90;;;;;;6279529;28;20953;-61
2023/03/04 08:07:45;;;;;;;19.33;17.13;;;6.40;99.90;;;;;;6279194;28;20585;-61
2023/03/04 08:10:48;;;;;;;22.43;16.83;;;6.60;99.90;;;;;;6279127;28;20481;-62
2023/03/04 08:13:52;;;;;;;21.60;17.00;;;6.70;99.90;;;;;;6279270;28;20476;-61
2023/03/04 08:16:56;;;;;;;23.83;19.20;;;6.80;99.90;;;;;;6278782;28;20474;-62
2023/03/04 08:20:00;;;;;;;27.03;21.03;;;7.00;99.90;;;;;;6279263;28;20486;-61
2023/03/04 08:23:03;;;;;;;31.93;23.20;;;7.30;99.90;;;;;;6278926;28;20470;-61
2023/03/04 08:26:08;;;;;;;16.90;15.13;;;7.50;99.90;;;;;;6278682;28;20474;-61
2023/03/04 08:29:14;;;;;;;17.07;15.37;;;7.80;99.50;;;;;;6278638;28;20548;-61
2023/03/04 08:32:18;;;;;;;19.73;17.40;;;8.10;98.40;;;;;;6279086;28;20481;-61
2023/03/04 08:35:23;;;;;;;21.80;17.20;;;8.50;98.00;;;;;;6280714;28;20522;-61
2023/03/04 08:38:26;;;;;;;21.80;14.13;;;8.90;97.40;;;;;;6274163;28;20492;-62
2023/03/04 08:41:29;;;;;;;23.90;15.07;;;11.10;96.10;;;;;;6278169;28;20478;-62
2023/03/04 08:44:32;;;;;;;15.03;13.53;;;15.50;89.50;;;;;;6278471;28;20470;-62
2023/03/04 08:47:35;;;;;;;15.27;13.63;;;19.10;60.70;;;;;;6277707;28;20965;-63
2023/03/04 08:50:40;;;;;;;15.87;14.30;;;22.00;49.00;;;;;;6275916;28;20235;-62
2023/03/04 08:53:44;;;;;;;16.57;14.77;;;23.90;41.60;;;;;;6253219;28;20229;-62
2023/03/04 08:56:47;;;;;;;17.83;16.10;;;25.70;35.70;;;;;;6253432;28;20228;-63
2023/03/04 08:59:50;;;;;;;17.33;15.80;;;27.70;31.60;;;;;;6252529;28;20582;-64
2023/03/04 09:02:54;;;;;;;18.60;16.80;;;29.40;28.00;;;;;;6253180;28;20243;-63
2023/03/04 09:05:59;;;;;;;15.77;14.47;;;30.20;26.50;;;;;;6253742;28;20235;-64
2023/03/04 09:09:02;;;;;;;17.52;15.77;;;30.30;24.90;;;;;;6252888;28;20235;-64
2023/03/04 09:12:06;;;;;;;18.55;16.85;;;31.70;24.00;;;;;;6253288;28;20254;-64
2023/03/04 09:15:10;;;;;;;18.15;16.38;;;33.00;22.40;;;;;;6253396;28;20707;-64
2023/03/04 09:18:15;;;;;;;16.13;14.73;;;33.80;21.10;;;;;;6257662;28;20243;-65
2023/03/04 09:21:19;;;;;;;16.63;15.32;;;34.20;20.40;;;;;;6254890;28;20249;-64
2023/03/04 09:24:22;;;;;;;16.60;15.02;;;34.30;20.00;;;;;;6253955;28;20679;-65
2023/03/04 09:27:26;;;;;;;16.23;14.52;;;34.10;20.30;;;;;;6253053;28;20235;-63
2023/03/04 09:30:29;;;;;;;13.18;12.07;;;34.40;19.80;;;;;;6252773;28;20232;-64
2023/03/04 09:33:32;;;;;;;14.55;13.13;;;34.10;19.60;;;;;;6253186;28;20670;-64
2023/03/04 09:36:37;;;;;;;16.70;13.30;;;35.50;19.10;;;;;;6253705;28;20234;-64
2023/03/04 09:39:40;;;;;;;13.18;12.18;;;36.40;18.40;;;;;;6252954;28;20235;-64
2023/03/04 09:42:47;;;;;;;13.45;12.23;;;34.50;18.60;;;;;;6252379;28;20231;-65
2023/03/04 09:45:53;;;;;;;14.20;12.73;;;35.10;18.70;;;;;;6239031;28;20273;-64
2023/03/04 09:48:57;;;;;;;12.65;11.68;;;36.10;18.30;;;;;;6252298;28;20240;-65
2023/03/04 09:52:10;;;;;;;12.00;11.00;;;36.50;18.10;;;;;;6251673;28;20231;-64
2023/03/04 09:55:19;;;;;;;12.93;11.57;;;36.10;17.70;;;;;;6251831;28;20519;-64
2023/03/04 09:58:36;;;;;;;12.43;10.98;;;36.30;18.30;;;;;;6251389;28;20238;-64
2023/03/04 10:01:46;;;;;;;11.70;10.63;;;37.50;17.50;;;;;;6256984;28;20238;-64
2023/03/04 10:04:52;;;;;;;11.88;9.55;;;36.70;17.40;;;;;;6276577;28;20347;-64
2023/03/04 10:07:59;;;;;;;10.20;9.45;;;37.50;17.60;;;;;;6276494;28;20317;-64
2023/03/04 10:11:06;;;;;;;10.52;9.52;;;38.70;16.50;;;;;;6276243;28;20242;-64
2023/03/04 10:14:23;;;;;;;10.68;9.60;;;38.70;16.00;;;;;;6276896;28;20237;-63
2023/03/04 10:17:35;;;;;;;10.38;9.48;;;40.10;15.30;;;;;;6276149;28;20545;-64
2023/03/04 10:20:50;;;;;;;10.55;9.50;;;39.80;14.80;;;;;;6275867;28;20237;-64
2023/03/04 10:23:54;;;;;;;12.07;9.10;;;40.30;14.60;;;;;;6270895;28;20232;-64
2023/03/04 10:27:06;;;;;;;9.50;8.45;;;40.90;14.30;;;;;;6241872;28;20631;-64
2023/03/04 10:30:20;;;;;;;9.05;8.23;;;41.00;13.80;;;;;;6233014;28;20220;-64
2023/03/04 10:33:26;;;;;;;11.60;7.50;;;39.90;13.90;;;;;;6244085;28;20219;-64
2023/03/04 10:36:55;;;;;;;10.15;8.27;;;39.60;14.10;;;;;;6247906;28;20227;-63
2023/03/04 10:40:02;;;;;;;10.32;8.00;;;37.80;14.90;;;;;;6230101;28;20227;-65
2023/03/04 10:43:07;;;;;;;8.48;7.45;;;37.30;14.00;;;;;;6235206;28;20648;-63
2023/03/04 10:46:11;;;;;;;9.60;7.07;;;37.30;14.40;;;;;;6240185;28;20635;-63
2023/03/04 10:49:16;;;;;;;9.93;7.65;;;38.50;13.70;;;;;;6237973;28;20219;-64
2023/03/04 10:52:27;;;;;;;7.18;6.35;;;40.30;13.20;;;;;;6244424;28;20515;-63
2023/03/04 10:55:43;;;;;;;7.20;6.68;;;41.80;12.10;;;;;;6237588;28;20557;-64
2023/03/04 10:58:46;;;;;;;10.68;6.70;;;41.10;12.30;;;;;;6236173;28;20244;-63
2023/03/04 11:01:50;;;;;;;8.65;6.40;;;41.00;12.70;;;;;;6239728;28;20231;-63
2023/03/04 11:04:56;;;;;;;10.77;7.22;;;41.40;12.10;;;;;;6238656;28;20227;-63
2023/03/04 11:08:00;;;;;;;11.40;7.38;;;41.60;11.50;;;;;;6227482;28;20251;-63
2023/03/04 11:11:22;;;;;;;12.57;6.55;;;41.80;11.70;;;;;;6225445;28;20232;-63
2023/03/04 11:14:31;;;;;;;7.05;6.05;;;43.10;11.20;;;;;;6225172;28;20694;-63
2023/03/04 11:17:45;;;;;;;8.60;7.18;;;42.70;10.80;;;;;;6225849;28;20308;-64
2023/03/04 11:20:50;;;;;;;9.05;7.30;;;40.90;11.80;;;;;;6226927;28;20246;-64
2023/03/04 11:23:58;;;;;;;9.32;5.88;;;41.50;11.50;;;;;;6225470;28;20686;-64
2023/03/04 11:27:06;;;;;;;9.32;6.00;;;41.30;11.40;;;;;;6225559;28;20228;-65
2023/03/04 11:30:33;;;;;;;9.95;7.07;;;41.40;11.40;;;;;;6225501;28;20691;-64
2023/03/04 11:33:43;;;;;;;7.80;6.15;;;40.90;11.40;;;;;;6225590;28;20243;-63
2023/03/04 11:36:56;;;;;;;9.60;6.45;;;39.40;11.50;;;;;;6225115;28;20250;-64
2023/03/04 11:40:03;;;;;;;8.95;6.32;;;40.00;11.40;;;;;;6225025;28;20240;-64
2023/03/04 11:43:16;;;;;;;7.85;5.88;;;40.30;11.00;;;;;;6225382;28;20216;-64
2023/03/04 11:46:49;;;;;;;6.32;5.70;;;40.60;11.30;;;;;;6225401;28;20204;-64
2023/03/04 11:50:20;;;;;;;6.47;5.75;;;41.40;11.00;;;;;;6216275;28;20248;-64
2023/03/04 11:53:41;;;;;;;6.15;5.20;;;42.20;10.60;;;;;;6249018;28;20231;-64
2023/03/04 11:56:47;;;;;;;9.43;6.20;;;43.60;9.90;;;;;;6249405;28;20584;-64
2023/03/04 12:00:07;;;;;;;8.75;5.65;;;43.90;9.40;;;;;;6249328;28;20621;-64
2023/03/04 12:03:27;;;;;;;8.18;5.57;;;43.40;9.40;;;;;;6266937;28;20685;-64
2023/03/04 12:06:44;;;;;;;7.18;5.43;;;43.50;9.70;;;;;;6273653;28;20349;-64
2023/03/04 12:09:57;;;;;;;6.90;5.30;;;42.90;9.30;;;;;;6273710;28;20683;-65
2023/03/04 12:13:29;;;;;;;6.45;5.75;;;42.00;9.80;;;;;;6274111;28;20235;-64
2023/03/04 12:17:12;;;;;;;9.20;5.70;;;42.00;10.00;;;;;;6274381;28;20318;-64
2023/03/04 12:20:37;;;;;;;8.93;5.47;;;43.10;9.20;;;;;;6268262;28;20234;-64
2023/03/04 12:24:18;;;;;;;8.95;5.60;;;43.60;9.10;;;;;;6274091;28;20674;-64
2023/03/04 12:27:27;;;;;;;9.45;6.15;;;43.60;9.40;;;;;;6253922;28;20231;-64
2023/03/04 12:30:53;;;;;;;7.10;5.50;;;41.30;10.10;;;;;;6274258;28;20262;-64
2023/03/04 12:34:27;;;;;;;8.43;5.50;;;41.70;10.60;;;;;;6273763;28;20678;-64
2023/03/04 12:37:53;;;;;;;8.88;5.68;;;42.10;10.20;;;;;;6273881;28;20270;-64
2023/03/04 12:41:12;;;;;;;7.80;5.35;;;42.00;10.10;;;;;;6274395;28;20698;-64
2023/03/04 12:44:17;;;;;;;6.75;6.15;;;42.80;10.00;;;;;;6278581;28;20231;-64
2023/03/04 12:47:30;;;;;;;6.57;5.63;;;43.00;9.60;;;;;;6278211;28;20607;-64
2023/03/04 12:50:42;;;;;;;6.00;5.40;;;43.20;9.60;;;;;;6277331;28;20230;-64
2023/03/04 12:53:56;;;;;;;6.00;5.43;;;44.10;9.20;;;;;;6249151;28;20242;-63
2023/03/04 12:57:02;;;;;;;10.60;6.15;;;43.90;9.20;;;;;;6253956;28;20242;-65
2023/03/04 13:00:18;;;;;;;9.90;5.85;;;43.80;8.90;;;;;;6253586;28;20224;-64
2023/03/04 13:03:30;;;;;;;7.07;5.47;;;43.70;8.80;;;;;;6272640;28;20914;-63
2023/03/04 13:06:46;;;;;;;8.27;5.18;;;42.20;9.40;;;;;;6277806;28;20301;-63
2023/03/04 13:09:55;;;;;;;6.32;4.93;;;42.70;9.30;;;;;;6277547;28;20242;-63
2023/03/04 13:12:59;;;;;;;7.28;5.18;;;43.50;9.00;;;;;;6277710;28;20227;-63
2023/03/04 13:16:04;;;;;;;8.32;5.78;;;44.20;8.70;;;;;;6278517;28;20235;-63
2023/03/04 13:19:40;;;;;;;7.60;4.88;;;44.40;8.70;;;;;;6243473;28;20234;-64
2023/03/04 13:22:49;;;;;;;8.68;5.50;;;43.70;8.60;;;;;;6243135;28;20240;-64
2023/03/04 13:26:22;;;;;;;6.28;5.20;;;43.50;8.70;;;;;;6243403;28;20656;-63
2023/03/04 13:29:35;;;;;;;6.18;4.90;;;42.20;8.80;;;;;;6230814;28;20243;-68
2023/03/04 13:32:39;;;;;;;6.97;5.63;;;42.30;9.40;;;;;;6250783;28;20223;-67
2023/03/04 13:35:51;;;;;;;7.30;5.07;;;40.80;9.70;;;;;;6252923;28;20560;-69
2023/03/04 13:39:00;;;;;;;7.80;5.25;;;40.90;10.20;;;;;;6252807;28;20239;-67
2023/03/04 13:42:19;;;;;;;9.15;5.63;;;38.70;11.30;;;;;;6252405;28;20621;-67
2023/03/04 13:45:32;;;;;;;8.55;4.97;;;39.40;11.20;;;;;;6252459;28;20240;-67
2023/03/04 13:48:36;;;;;;;8.90;5.78;;;39.70;10.80;;;;;;6252447;28;20523;-66
2023/03/04 13:51:43;;;;;;;11.32;6.47;;;38.60;11.50;;;;;;6252178;28;20574;-65
2023/03/04 13:54:48;;;;;;;9.88;5.85;;;36.80;12.40;;;;;;6250708;28;20243;-69
2023/03/04 13:57:52;;;;;;;11.75;5.78;;;34.40;13.30;;;;;;6250976;28;20247;-67
2023/03/04 14:00:56;;;;;;;14.45;5.85;;;32.30;14.80;;;;;;6251684;28;20232;-66
2023/03/04 14:03:59;;;;;;;9.33;5.50;;;30.50;16.00;;;;;;6276652;28;20254;-69
2023/03/04 14:07:16;;;;;;;9.50;5.77;;;28.40;17.90;;;;;;6257196;28;20220;-65
2023/03/04 14:10:24;;;;;;;5.97;5.30;;;26.00;19.80;;;;;;6228744;28;20217;-66
2023/03/04 14:13:28;;;;;;;12.70;5.30;;;23.80;21.70;;;;;;6226958;28;20232;-60
2023/03/04 14:16:36;;;;;;;8.00;5.47;;;22.70;22.70;;;;;;6227325;28;20236;-61
2023/03/04 14:19:44;;;;;;;11.63;5.57;;;21.80;23.80;;;;;;6227165;28;20291;-62
2023/03/04 14:22:48;;;;;;;8.40;4.80;;;20.80;25.20;;;;;;6227260;28;20224;-61
2023/03/04 14:25:52;;;;;;;9.30;4.70;;;20.20;26.10;;;;;;6226923;28;20688;-62
2023/03/04 14:28:58;;;;;;;9.40;5.13;;;19.90;26.50;;;;;;6226624;28;20687;-62
2023/03/04 14:32:01;;;;;;;11.37;4.57;;;19.50;27.10;;;;;;6233787;28;20523;-60
2023/03/04 14:35:07;;;;;;;7.67;4.33;;;19.10;27.10;;;;;;6251132;28;20247;-61
2023/03/04 14:38:19;;;;;;;12.53;4.50;;;18.60;27.20;;;;;;6250967;28;20236;-61
2023/03/04 14:41:27;;;;;;;9.53;4.87;;;18.50;27.50;;;;;;6250674;28;20239;-62
2023/03/04 14:44:36;;;;;;;8.00;4.27;;;18.00;28.00;;;;;;6251064;28;20239;-60
2023/03/04 14:47:44;;;;;;;8.40;4.70;;;17.70;28.80;;;;;;6251059;28;20390;-60
2023/03/04 14:50:52;;;;;;;6.20;4.70;;;17.70;28.90;;;;;;6251151;28;20220;-60
2023/03/04 14:53:56;;;;;;;11.47;5.17;;;17.50;29.10;;;;;;6250512;28;20281;-60
2023/03/04 14:57:17;;;;;;;7.70;4.80;;;17.20;29.20;;;;;;6250888;28;20238;-60
2023/03/04 15:00:30;;;;;;;8.17;4.63;;;17.20;29.30;;;;;;6250716;28;20805;-60
2023/03/04 15:03:34;;;;;;;8.73;4.30;;;17.10;29.30;;;;;;6262231;28;20238;-66
2023/03/04 15:06:40;;;;;;;9.53;5.10;;;17.20;29.30;;;;;;6267584;28;20251;-60
2023/03/04 15:09:51;;;;;;;6.03;3.47;;;17.00;29.70;;;;;;6255612;28;20306;-59
2023/03/04 15:13:00;;;;;;;7.03;3.70;;;16.90;30.00;;;;;;6251680;28;20684;-59
2023/03/04 15:16:04;;;;;;;7.27;4.83;;;16.70;30.20;;;;;;6250564;28;20482;-60
2023/03/04 15:19:25;;;;;;;9.47;4.27;;;16.70;30.50;;;;;;6250228;28;20489;-59
2023/03/04 15:22:29;;;;;;;5.53;4.30;;;16.30;30.90;;;;;;6250380;28;20467;-60
2023/03/04 15:25:34;;;;;;;12.87;4.97;;;16.10;31.40;;;;;;6250277;28;20485;-59
2023/03/04 15:28:41;;;;;;;6.67;3.50;;;16.10;31.30;;;;;;6250542;28;20467;-59
2023/03/04 15:31:47;;;;;;;5.57;4.17;;;16.10;31.10;;;;;;6250012;28;20470;-60
2023/03/04 15:34:50;;;;;;;4.70;3.93;;;16.10;31.30;;;;;;6225598;28;20947;-60
2023/03/04 15:37:56;;;;;;;8.33;4.00;;;16.20;31.70;;;;;;6224706;28;21083;-61
2023/03/04 15:41:03;;;;;;;8.10;4.60;;;16.20;31.80;;;;;;6240845;28;20490;-60
2023/03/04 15:44:11;;;;;;;10.87;4.70;;;16.20;31.60;;;;;;6249963;28;20478;-59
2023/03/04 15:47:14;;;;;;;8.00;4.40;;;16.10;31.40;;;;;;6249535;28;20483;-61
2023/03/04 15:50:19;;;;;;;9.00;4.00;;;16.10;31.60;;;;;;6250341;28;20477;-61
2023/03/04 15:53:28;;;;;;;6.37;4.20;;;16.20;31.80;;;;;;6249582;28;20493;-62
2023/03/04 15:56:34;;;;;;;9.33;4.40;;;16.20;31.90;;;;;;6249679;28;20787;-61
2023/03/04 15:59:39;;;;;;;8.50;3.93;;;16.10;31.90;;;;;;6238491;28;20471;-61
2023/03/04 16:02:46;;;;;;;12.50;5.67;;;16.10;32.00;;;;;;6241209;28;20475;-61
2023/03/04 16:05:52;;;;;;;10.30;4.77;;;16.10;32.40;;;;;;6227313;28;20542;-62